createdAt,value
2022-12-06T00:00:34.324Z,8.50
2022-12-06T00:03:02.479Z,8.50
2022-12-06T00:05:31.808Z,8.50
2022-12-06T00:08:00.092Z,8.50
2022-12-06T00:10:28.263Z,8.40
2022-12-06T00:12:56.396Z,8.40
2022-12-06T00:15:24.337Z,8.40
2022-12-06T00:17:52.593Z,8.40
2022-12-06T00:20:20.764Z,8.40
2022-12-06T00:22:55.122Z,8.30
2022-12-06T00:25:23.696Z,8.40
2022-12-06T00:27:53.776Z,8.40
2022-12-06T00:30:22.092Z,8.30
2022-12-06T00:32:51.258Z,8.40
2022-12-06T00:35:19.461Z,8.40
2022-12-06T00:37:47.096Z,8.20
2022-12-06T00:40:15.182Z,8.30
2022-12-06T00:42:43.300Z,8.20
2022-12-06T00:45:11.517Z,8.40
2022-12-06T00:47:39.675Z,8.40
2022-12-06T00:50:08.210Z,8.40
2022-12-06T00:52:36.216Z,8.40
2022-12-06T00:55:04.217Z,8.40
2022-12-06T00:57:32.103Z,8.40
2022-12-06T01:00:00.260Z,8.30
2022-12-06T01:02:30.138Z,8.40
2022-12-06T01:04:58.365Z,8.40
2022-12-06T01:07:27.494Z,8.50
2022-12-06T01:09:55.724Z,8.40
2022-12-06T01:12:23.702Z,8.40
2022-12-06T01:14:51.760Z,8.30
2022-12-06T01:17:19.535Z,8.30
2022-12-06T01:19:46.999Z,8.30
2022-12-06T01:22:14.629Z,8.20
2022-12-06T01:24:42.124Z,8.20
2022-12-06T01:27:09.631Z,8.10
2022-12-06T01:29:37.148Z,8.10
2022-12-06T01:32:04.720Z,8.10
2022-12-06T01:34:32.251Z,8.10
2022-12-06T01:36:59.707Z,8.10
2022-12-06T01:39:27.280Z,8.00
2022-12-06T01:41:54.856Z,8.00
2022-12-06T01:44:41.329Z,7.90
2022-12-06T01:47:13.836Z,7.70
2022-12-06T01:49:41.551Z,7.70
2022-12-06T01:52:11.361Z,7.80
2022-12-06T01:54:40.498Z,7.80
2022-12-06T01:57:11.346Z,7.80
2022-12-06T01:59:39.285Z,7.90
2022-12-06T02:02:07.732Z,7.70
2022-12-06T02:04:35.435Z,7.50
2022-12-06T02:07:03.466Z,7.50
2022-12-06T02:09:31.296Z,7.50
2022-12-06T02:11:58.875Z,7.60
2022-12-06T02:14:29.455Z,7.50
2022-12-06T02:17:03.089Z,7.60
2022-12-06T02:19:36.725Z,7.50
2022-12-06T02:22:11.310Z,7.70
2022-12-06T02:24:57.656Z,7.50
2022-12-06T02:27:28.305Z,7.50
2022-12-06T02:30:09.033Z,7.60
2022-12-06T02:32:41.390Z,7.60
2022-12-06T02:35:24.209Z,7.60
2022-12-06T02:37:51.700Z,7.40
2022-12-06T02:40:45.470Z,7.40
2022-12-06T02:43:15.308Z,7.40
2022-12-06T02:45:49.290Z,7.40
2022-12-06T02:48:17.972Z,7.40
2022-12-06T02:50:48.611Z,7.50
2022-12-06T02:53:18.497Z,7.70
2022-12-06T02:55:46.606Z,7.60
2022-12-06T02:58:14.063Z,7.50
2022-12-06T03:00:45.707Z,7.60
2022-12-06T03:03:13.140Z,7.70
2022-12-06T03:05:46.019Z,7.80
2022-12-06T03:08:25.299Z,7.70
2022-12-06T03:10:57.740Z,7.70
2022-12-06T03:13:28.250Z,7.60
2022-12-06T03:16:07.874Z,7.60
2022-12-06T03:18:57.085Z,7.40
2022-12-06T03:21:42.278Z,7.40
2022-12-06T03:24:12.268Z,7.30
2022-12-06T03:26:39.870Z,7.20
2022-12-06T03:29:09.237Z,7.20
2022-12-06T03:31:38.943Z,7.10
2022-12-06T03:34:21.346Z,7.10
2022-12-06T03:36:49.779Z,7.10
2022-12-06T03:39:24.491Z,7.10
2022-12-06T03:41:54.121Z,7.20
2022-12-06T03:44:22.658Z,7.20
2022-12-06T03:46:53.240Z,7.10
2022-12-06T03:49:24.924Z,7.10
2022-12-06T03:51:52.587Z,7.00
2022-12-06T03:54:20.224Z,7.10
2022-12-06T03:56:47.803Z,7.00
2022-12-06T03:59:15.366Z,6.90
2022-12-06T04:01:42.968Z,6.80
2022-12-06T04:04:10.717Z,6.70
2022-12-06T04:06:38.463Z,6.80
2022-12-06T04:09:24.553Z,6.80
2022-12-06T04:11:52.097Z,6.90
2022-12-06T04:14:19.634Z,6.90
2022-12-06T04:17:05.741Z,7.00
2022-12-06T04:19:33.301Z,6.90
2022-12-06T04:22:19.486Z,6.70
2022-12-06T04:24:47.064Z,6.50
2022-12-06T04:27:33.477Z,6.70
2022-12-06T04:30:19.634Z,6.80
2022-12-06T04:33:05.942Z,6.90
2022-12-06T04:35:52.062Z,6.90
2022-12-06T04:38:38.123Z,6.90
2022-12-06T04:41:05.639Z,6.80
2022-12-06T04:43:42.252Z,6.90
2022-12-06T04:46:10.643Z,6.90
2022-12-06T04:48:38.664Z,6.90
2022-12-06T04:51:06.344Z,7.00
2022-12-06T04:53:34.129Z,6.90
2022-12-06T04:56:01.980Z,6.90
2022-12-06T04:58:29.565Z,6.80
2022-12-06T05:00:57.101Z,6.70
2022-12-06T05:03:24.766Z,6.90
2022-12-06T05:05:52.405Z,6.90
2022-12-06T05:08:20.033Z,6.90
2022-12-06T05:10:48.528Z,6.80
2022-12-06T05:13:17.222Z,6.60
2022-12-06T05:15:55.307Z,6.70
2022-12-06T05:18:23.041Z,6.60
2022-12-06T05:20:50.973Z,6.60
2022-12-06T05:23:18.512Z,6.70
2022-12-06T05:25:46.102Z,6.90
2022-12-06T05:28:13.894Z,6.80
2022-12-06T05:30:41.478Z,6.90
2022-12-06T05:33:08.993Z,6.90
2022-12-06T05:35:39.201Z,6.90
2022-12-06T05:38:06.818Z,6.90
2022-12-06T05:40:34.494Z,6.90
2022-12-06T05:43:01.959Z,7.00
2022-12-06T05:45:29.555Z,6.80
2022-12-06T05:47:57.260Z,6.80
2022-12-06T05:50:24.942Z,6.90
2022-12-06T05:52:56.236Z,7.00
2022-12-06T05:55:24.065Z,7.00
2022-12-06T05:57:52.177Z,7.10
2022-12-06T06:00:20.102Z,7.00
2022-12-06T06:02:47.907Z,7.10
2022-12-06T06:05:15.511Z,7.20
2022-12-06T06:07:43.068Z,7.20
2022-12-06T06:10:11.157Z,6.90
2022-12-06T06:12:40.700Z,7.00
2022-12-06T06:15:08.452Z,7.10
2022-12-06T06:17:36.099Z,7.00
2022-12-06T06:20:06.919Z,7.10
2022-12-06T06:22:35.321Z,7.20
2022-12-06T06:25:03.417Z,7.20
2022-12-06T06:27:34.935Z,7.10
2022-12-06T06:30:02.901Z,7.10
2022-12-06T06:32:30.729Z,7.20
2022-12-06T06:34:58.255Z,7.20
2022-12-06T06:37:25.782Z,7.10
2022-12-06T06:39:53.269Z,7.00
2022-12-06T06:42:20.943Z,6.80
2022-12-06T06:44:48.407Z,6.90
2022-12-06T06:47:15.999Z,6.90
2022-12-06T06:49:43.496Z,6.90
2022-12-06T06:52:11.028Z,7.00
2022-12-06T06:54:38.569Z,7.00
2022-12-06T06:57:06.175Z,7.00
2022-12-06T06:59:33.547Z,7.10
2022-12-06T07:02:01.173Z,7.10
2022-12-06T07:04:28.706Z,7.20
2022-12-06T07:06:56.292Z,7.10
2022-12-06T07:09:23.789Z,7.20
2022-12-06T07:11:51.247Z,7.10
2022-12-06T07:14:18.860Z,7.20
2022-12-06T07:16:46.456Z,7.20
2022-12-06T07:19:14.089Z,7.10
2022-12-06T07:21:41.606Z,7.10
2022-12-06T07:24:10.177Z,7.20
2022-12-06T07:26:37.716Z,7.20
2022-12-06T07:29:05.358Z,7.00
2022-12-06T07:31:34.029Z,7.10
2022-12-06T07:34:02.725Z,7.10
2022-12-06T07:36:31.858Z,7.10
2022-12-06T07:38:59.821Z,7.10
2022-12-06T07:41:47.105Z,7.20
2022-12-06T07:44:59.770Z,7.10
2022-12-06T07:47:33.454Z,7.10
2022-12-06T07:50:01.291Z,7.10
2022-12-06T07:52:33.075Z,7.10
2022-12-06T07:55:00.635Z,7.20
2022-12-06T07:57:28.574Z,7.00
2022-12-06T07:59:56.121Z,7.20
2022-12-06T08:02:25.917Z,7.20
2022-12-06T08:04:54.160Z,7.10
2022-12-06T08:07:22.721Z,7.20
2022-12-06T08:09:51.286Z,7.20
2022-12-06T08:12:18.940Z,7.10
2022-12-06T08:14:46.750Z,7.10
2022-12-06T08:17:14.538Z,7.10
2022-12-06T08:19:42.244Z,7.10
2022-12-06T08:22:09.981Z,7.20
2022-12-06T08:24:37.729Z,7.00
2022-12-06T08:27:05.359Z,7.00
2022-12-06T08:29:33.186Z,7.10
2022-12-06T08:32:00.820Z,7.10
2022-12-06T08:34:28.444Z,7.10
2022-12-06T08:36:59.068Z,7.00
2022-12-06T08:39:30.826Z,6.90
2022-12-06T08:41:58.529Z,6.60
2022-12-06T08:44:27.118Z,6.60
2022-12-06T08:46:55.139Z,6.50
2022-12-06T08:49:23.567Z,6.50
2022-12-06T08:51:51.427Z,6.50
2022-12-06T08:54:20.098Z,6.80
2022-12-06T08:56:47.729Z,6.80
2022-12-06T08:59:15.607Z,6.70
2022-12-06T09:01:43.463Z,6.90
2022-12-06T09:04:11.606Z,6.90
2022-12-06T09:06:40.176Z,7.10
2022-12-06T09:09:08.724Z,7.00
2022-12-06T09:11:36.625Z,6.90
2022-12-06T09:14:04.269Z,6.80
2022-12-06T09:16:31.935Z,7.00
2022-12-06T09:18:59.626Z,7.20
2022-12-06T09:21:32.023Z,7.30
2022-12-06T09:23:59.577Z,7.40
2022-12-06T09:26:27.819Z,7.40
2022-12-06T09:28:56.103Z,7.50
2022-12-06T09:31:23.849Z,7.50
2022-12-06T09:33:51.891Z,7.50
2022-12-06T09:36:22.287Z,7.50
2022-12-06T09:38:52.455Z,7.50
2022-12-06T09:41:38.525Z,7.60
2022-12-06T09:44:21.426Z,7.70
2022-12-06T09:46:51.846Z,7.80
2022-12-06T09:49:26.750Z,8.00
2022-12-06T09:52:06.538Z,7.90
2022-12-06T09:54:49.027Z,7.90
2022-12-06T09:57:23.244Z,8.00
2022-12-06T10:00:11.643Z,8.10
2022-12-06T10:02:58.572Z,8.10
2022-12-06T10:05:35.562Z,8.20
2022-12-06T10:08:22.015Z,8.20
2022-12-06T10:10:49.733Z,8.10
2022-12-06T10:13:37.474Z,8.10
2022-12-06T10:16:17.522Z,8.30
2022-12-06T10:18:53.660Z,8.30
2022-12-06T10:21:41.502Z,8.30
2022-12-06T10:24:09.244Z,8.30
2022-12-06T10:26:45.872Z,8.30
2022-12-06T10:29:23.195Z,8.30
2022-12-06T10:31:59.455Z,8.30
2022-12-06T10:34:38.787Z,8.40
2022-12-06T10:37:13.331Z,8.50
2022-12-06T10:39:51.731Z,8.50
2022-12-06T10:42:28.932Z,8.50
2022-12-06T10:45:03.112Z,8.50
2022-12-06T10:47:38.279Z,8.60
2022-12-06T10:50:08.336Z,8.60
2022-12-06T10:52:42.634Z,8.70
2022-12-06T10:55:10.550Z,8.80
2022-12-06T10:57:47.074Z,8.90
2022-12-06T11:00:18.075Z,8.80
2022-12-06T11:03:04.276Z,8.90
2022-12-06T11:05:37.328Z,9.00
2022-12-06T11:08:09.510Z,8.90
2022-12-06T11:10:38.730Z,8.90
2022-12-06T11:13:15.427Z,8.80
2022-12-06T11:15:45.357Z,8.80
2022-12-06T11:18:17.326Z,8.90
2022-12-06T11:20:51.129Z,8.90
2022-12-06T11:23:21.958Z,8.90
2022-12-06T11:26:05.327Z,8.90
2022-12-06T11:28:42.113Z,8.90
2022-12-06T11:31:25.289Z,8.90
2022-12-06T11:33:52.871Z,8.90
2022-12-06T11:36:21.496Z,8.80
2022-12-06T11:38:49.091Z,8.80
2022-12-06T11:41:25.323Z,8.80
2022-12-06T11:43:53.593Z,8.90
2022-12-06T11:46:21.997Z,9.10
2022-12-06T11:48:49.989Z,9.10
2022-12-06T11:51:19.499Z,9.10
2022-12-06T11:54:05.719Z,8.90
2022-12-06T11:56:35.426Z,8.80
2022-12-06T11:59:07.561Z,8.70
2022-12-06T12:01:45.807Z,8.60
2022-12-06T12:04:24.239Z,8.70
2022-12-06T12:06:53.274Z,8.70
2022-12-06T12:09:21.436Z,8.80
2022-12-06T12:11:54.784Z,8.70
2022-12-06T12:14:27.720Z,8.70
2022-12-06T12:17:12.394Z,8.70
2022-12-06T12:20:03.416Z,8.50
2022-12-06T12:22:54.063Z,8.60
2022-12-06T12:25:31.169Z,8.60
2022-12-06T12:27:59.324Z,8.50
2022-12-06T12:30:27.104Z,8.60
2022-12-06T12:33:06.767Z,8.60
2022-12-06T12:35:36.134Z,8.80
2022-12-06T12:38:06.061Z,8.70
2022-12-06T12:40:33.737Z,8.70
2022-12-06T12:43:04.579Z,8.70
2022-12-06T12:45:32.689Z,8.80
2022-12-06T12:48:01.657Z,8.90
2022-12-06T12:50:30.186Z,8.90
2022-12-06T12:52:59.469Z,8.90
2022-12-06T12:55:28.551Z,8.90
2022-12-06T12:57:58.145Z,8.90
2022-12-06T13:00:28.937Z,9.00
2022-12-06T13:02:58.853Z,9.10
2022-12-06T13:05:33.925Z,9.20
2022-12-06T13:08:22.231Z,9.20
2022-12-06T13:10:57.034Z,9.40
2022-12-06T13:13:37.472Z,9.20
2022-12-06T13:16:10.595Z,9.40
2022-12-06T13:18:44.099Z,9.40
2022-12-06T13:21:17.731Z,9.50
2022-12-06T13:23:46.077Z,9.50
2022-12-06T13:26:13.623Z,9.60
2022-12-06T13:28:43.947Z,9.60
2022-12-06T13:31:14.231Z,9.60
2022-12-06T13:33:45.308Z,9.60
2022-12-06T13:36:14.303Z,9.60
2022-12-06T13:38:42.418Z,9.70
2022-12-06T13:41:14.224Z,9.60
2022-12-06T13:43:48.929Z,9.70
2022-12-06T13:46:21.916Z,9.60
2022-12-06T13:48:56.355Z,9.50
2022-12-06T13:51:33.149Z,9.30
2022-12-06T13:54:03.920Z,9.00
2022-12-06T13:56:34.810Z,8.90
2022-12-06T13:59:25.579Z,8.80
2022-12-06T14:01:57.225Z,8.70
2022-12-06T14:07:00.448Z,8.60
2022-12-06T14:09:35.397Z,8.60
2022-12-06T14:12:07.143Z,8.60
2022-12-06T14:14:34.687Z,8.50
2022-12-06T14:17:04.345Z,8.40
2022-12-06T14:19:39.569Z,8.40
2022-12-06T14:22:24.560Z,8.40
2022-12-06T14:24:55.101Z,8.40
2022-12-06T14:27:23.848Z,8.40
2022-12-06T14:30:06.638Z,8.40
2022-12-06T14:32:35.156Z,8.30
2022-12-06T14:35:03.936Z,8.40
2022-12-06T14:37:31.708Z,8.40
2022-12-06T14:40:11.614Z,8.40
2022-12-06T14:43:02.228Z,8.40
2022-12-06T14:45:34.471Z,8.30
2022-12-06T14:48:03.448Z,8.20
2022-12-06T14:50:45.001Z,8.10
2022-12-06T14:53:13.730Z,8.20
2022-12-06T14:55:58.428Z,8.20
2022-12-06T14:58:27.886Z,8.30
2022-12-06T15:00:55.389Z,8.10
2022-12-06T15:03:29.327Z,8.10
2022-12-06T15:06:11.476Z,8.20
2022-12-06T15:08:43.235Z,8.10
2022-12-06T15:11:13.734Z,8.10
2022-12-06T15:13:41.390Z,8.10
2022-12-06T15:16:09.037Z,8.00
2022-12-06T15:18:39.534Z,8.00
2022-12-06T15:21:11.449Z,8.00
2022-12-06T15:23:41.124Z,8.00
2022-12-06T15:26:12.109Z,8.00
2022-12-06T15:28:40.096Z,8.00
2022-12-06T15:31:13.936Z,8.00
2022-12-06T15:33:41.618Z,8.00
2022-12-06T15:36:12.002Z,8.00
2022-12-06T15:38:39.532Z,7.90
2022-12-06T15:41:13.725Z,7.90
2022-12-06T15:43:41.223Z,7.90
2022-12-06T15:46:11.064Z,7.80
2022-12-06T15:48:38.827Z,7.80
2022-12-06T15:51:10.456Z,7.70
2022-12-06T15:53:39.209Z,7.70
2022-12-06T15:56:06.955Z,7.70
2022-12-06T15:58:34.469Z,7.60
2022-12-06T16:01:02.092Z,7.60
2022-12-06T16:03:29.587Z,7.70
2022-12-06T16:05:57.200Z,7.80
2022-12-06T16:08:24.850Z,7.80
2022-12-06T16:13:40.243Z,7.70
2022-12-06T16:16:08.240Z,7.50
2022-12-06T16:18:35.884Z,7.60
2022-12-06T16:21:03.944Z,7.60
2022-12-06T16:24:12.505Z,7.60
2022-12-06T16:26:39.460Z,7.60
2022-12-06T16:29:07.436Z,7.60
2022-12-06T16:31:38.741Z,7.60
2022-12-06T16:34:07.207Z,7.70
2022-12-06T16:36:35.357Z,7.70
2022-12-06T16:39:04.874Z,7.70
2022-12-06T16:41:33.473Z,7.70
2022-12-06T16:44:01.019Z,7.80
2022-12-06T16:46:28.695Z,7.70
2022-12-06T16:49:15.779Z,7.80
2022-12-06T16:51:48.513Z,7.60
2022-12-06T16:54:16.200Z,7.60
2022-12-06T16:56:44.417Z,7.60
2022-12-06T16:59:15.850Z,7.60
2022-12-06T17:01:47.638Z,7.50
2022-12-06T17:04:15.297Z,7.60
2022-12-06T17:06:42.974Z,7.40
2022-12-06T17:09:11.083Z,7.60
2022-12-06T17:11:57.662Z,7.60
2022-12-06T17:14:25.658Z,7.60
2022-12-06T17:16:53.712Z,7.70
2022-12-06T17:19:23.036Z,7.70
2022-12-06T17:21:51.535Z,7.70
2022-12-06T17:24:19.730Z,7.60
2022-12-06T17:26:47.431Z,7.70
2022-12-06T17:29:15.084Z,7.70
2022-12-06T17:31:43.028Z,7.80
2022-12-06T17:34:12.827Z,7.80
2022-12-06T17:36:41.125Z,7.90
2022-12-06T17:39:14.299Z,7.80
2022-12-06T17:42:00.581Z,7.80
2022-12-06T17:44:28.628Z,7.90
2022-12-06T17:46:56.661Z,7.70
2022-12-06T17:49:25.353Z,7.50
2022-12-06T17:51:53.322Z,7.50
2022-12-06T17:54:21.417Z,7.50
2022-12-06T17:56:50.269Z,7.50
2022-12-06T17:59:20.140Z,7.40
2022-12-06T18:02:14.028Z,7.40
2022-12-06T18:04:36.223Z,7.40
2022-12-06T18:07:03.852Z,7.50
2022-12-06T18:09:31.381Z,7.60
2022-12-06T18:12:01.123Z,7.70
2022-12-06T18:14:29.050Z,7.60
2022-12-06T18:16:56.790Z,7.60
2022-12-06T18:19:24.421Z,7.60
2022-12-06T18:21:53.288Z,7.50
2022-12-06T18:24:23.297Z,7.50
2022-12-06T18:26:52.115Z,7.50
2022-12-06T18:29:21.083Z,7.50
2022-12-06T18:31:49.366Z,7.50
2022-12-06T18:34:17.072Z,7.50
2022-12-06T18:36:44.720Z,7.60
2022-12-06T18:39:15.866Z,7.60
2022-12-06T18:41:44.865Z,7.50
2022-12-06T18:44:13.142Z,7.60
2022-12-06T18:46:42.869Z,7.60
2022-12-06T18:49:12.140Z,7.40
2022-12-06T18:51:40.194Z,7.20
2022-12-06T18:54:08.293Z,7.30
2022-12-06T18:56:36.342Z,7.20
2022-12-06T18:59:07.465Z,7.00
2022-12-06T19:01:36.123Z,6.80
2022-12-06T19:04:04.831Z,7.00
2022-12-06T19:06:33.642Z,7.10
2022-12-06T19:09:02.363Z,7.10
2022-12-06T19:11:30.045Z,7.10
2022-12-06T19:13:58.298Z,7.10
2022-12-06T19:16:38.054Z,7.10
2022-12-06T19:19:10.120Z,7.20
2022-12-06T19:21:44.138Z,7.10
2022-12-06T19:24:12.042Z,7.10
2022-12-06T19:26:39.686Z,7.10
2022-12-06T19:29:07.523Z,7.20
2022-12-06T19:31:35.451Z,7.00
2022-12-06T19:34:02.983Z,6.90
2022-12-06T19:36:31.176Z,7.10
2022-12-06T19:39:00.389Z,7.20
2022-12-06T19:41:28.531Z,6.90
2022-12-06T19:44:14.727Z,6.90
2022-12-06T19:46:43.306Z,6.80
2022-12-06T19:49:12.553Z,6.60
2022-12-06T19:51:42.107Z,6.70
2022-12-06T19:54:10.658Z,6.80
2022-12-06T19:56:39.544Z,6.90
2022-12-06T19:59:13.517Z,6.70
2022-12-06T20:01:45.169Z,6.50
2022-12-06T20:04:16.589Z,6.50
2022-12-06T20:06:44.393Z,6.50
2022-12-06T20:09:12.263Z,6.50
2022-12-06T20:11:59.025Z,6.50
2022-12-06T20:14:27.393Z,6.60
2022-12-06T20:16:57.197Z,6.50
2022-12-06T20:19:25.996Z,6.50
2022-12-06T20:21:53.670Z,6.30
2022-12-06T20:24:22.672Z,6.40
2022-12-06T20:26:52.021Z,6.50
2022-12-06T20:29:19.885Z,6.50
2022-12-06T20:31:50.090Z,6.50
2022-12-06T20:34:19.672Z,6.50
2022-12-06T20:36:47.875Z,6.60
2022-12-06T20:39:24.700Z,6.70
2022-12-06T20:41:53.221Z,6.70
2022-12-06T20:44:22.418Z,6.60
2022-12-06T20:46:50.531Z,6.60
2022-12-06T20:49:18.425Z,6.50
2022-12-06T20:51:52.670Z,6.50
2022-12-06T20:54:22.160Z,6.50
2022-12-06T20:56:52.445Z,6.40
2022-12-06T20:59:23.226Z,6.40
2022-12-06T21:01:52.484Z,6.40
2022-12-06T21:04:20.043Z,6.50
2022-12-06T21:06:47.609Z,6.50
2022-12-06T21:09:15.238Z,6.40
2022-12-06T21:11:42.838Z,6.40
2022-12-06T21:14:12.265Z,6.30
2022-12-06T21:16:41.486Z,6.20
2022-12-06T21:19:15.162Z,6.20
2022-12-06T21:21:47.742Z,6.00
2022-12-06T21:24:16.666Z,6.00
2022-12-06T21:26:44.580Z,6.20
2022-12-06T21:29:16.490Z,6.20
2022-12-06T21:31:45.122Z,6.00
2022-12-06T21:34:13.572Z,6.00
2022-12-06T21:36:42.638Z,6.00
2022-12-06T21:39:11.706Z,6.00
2022-12-06T21:41:39.769Z,6.10
2022-12-06T21:44:09.457Z,6.00
2022-12-06T21:46:37.760Z,5.80
2022-12-06T21:49:05.494Z,5.60
2022-12-06T21:51:33.183Z,5.60
2022-12-06T21:54:00.711Z,5.70
2022-12-06T21:56:29.708Z,5.80
2022-12-06T21:59:00.235Z,6.00
2022-12-06T22:01:28.856Z,6.00
2022-12-06T22:03:57.614Z,6.00
2022-12-06T22:06:25.447Z,5.80
2022-12-06T22:08:57.509Z,5.90
2022-12-06T22:11:25.336Z,5.80
2022-12-06T22:13:52.861Z,5.70
2022-12-06T22:16:20.880Z,5.90
2022-12-06T22:18:48.599Z,5.50
2022-12-06T22:21:20.477Z,5.40
2022-12-06T22:23:48.495Z,5.30
2022-12-06T22:26:18.146Z,5.30
2022-12-06T22:28:46.120Z,5.10
2022-12-06T22:31:21.346Z,5.10
2022-12-06T22:33:49.568Z,5.40
2022-12-06T22:36:17.426Z,5.60
2022-12-06T22:38:47.986Z,5.60
2022-12-06T22:41:15.632Z,5.70
2022-12-06T22:43:43.206Z,5.70
2022-12-06T22:46:12.226Z,5.80
2022-12-06T22:48:39.930Z,5.80
2022-12-06T22:51:10.660Z,5.70
2022-12-06T22:53:39.160Z,5.60
2022-12-06T22:56:07.051Z,5.60
2022-12-06T22:58:34.739Z,5.50
2022-12-06T23:01:15.876Z,5.40
2022-12-06T23:03:48.476Z,5.40
2022-12-06T23:06:17.546Z,5.10
2022-12-06T23:08:45.202Z,5.30
2022-12-06T23:11:17.483Z,5.30
2022-12-06T23:13:45.454Z,5.00
2022-12-06T23:16:14.476Z,5.10
2022-12-06T23:18:42.495Z,5.00
2022-12-06T23:21:12.957Z,5.00
2022-12-06T23:23:41.676Z,5.00
2022-12-06T23:26:10.469Z,4.90
2022-12-06T23:28:38.461Z,4.80
2022-12-06T23:31:06.856Z,4.80
2022-12-06T23:33:34.832Z,4.90
2022-12-06T23:36:07.212Z,5.10
2022-12-06T23:38:35.256Z,5.10
2022-12-06T23:41:03.715Z,4.90
2022-12-06T23:43:31.455Z,4.90
2022-12-06T23:46:04.339Z,5.10
2022-12-06T23:48:35.451Z,4.80
2022-12-06T23:51:04.274Z,4.60
2022-12-06T23:53:32.115Z,4.60
2022-12-06T23:56:00.130Z,4.70
2022-12-06T23:58:28.691Z,4.80
